Terminal Aerodrome Forecast
Issued by NWS Spokane, WA

Home | Current Version | Previous Version | Text Only | Print | Product List | Glossary On
Versions: 1 2 3 4 5 6 7 8 9 10 11 12 13
000
FTUS46 KOTX 261141
TAFLWS
TAF
KLWS 261141Z 2612/2712 VRB02KT P6SM SCT080 OVC120
     FM261800 32006KT P6SM FEW070 BKN100 BKN150
     FM270000 32010KT P6SM FEW080 BKN150
     FM270600 21006KT P6SM BKN050 OVC090=

USA.gov is the U.S. government's official web portal to all federal, state and local government web resources and services.